createdAt,value
2018-09-28T00:01:56.383Z,17.40
2018-09-28T00:04:24.465Z,17.42
2018-09-28T00:06:52.545Z,17.44
2018-09-28T00:09:20.605Z,17.45
2018-09-28T00:11:48.675Z,17.44
2018-09-28T00:14:16.742Z,17.44
2018-09-28T00:16:44.816Z,17.42
2018-09-28T00:19:12.881Z,17.40
2018-09-28T00:21:40.945Z,17.38
2018-09-28T00:24:09.048Z,17.36
2018-09-28T00:26:37.149Z,17.33
2018-09-28T00:29:05.214Z,17.35
2018-09-28T00:31:33.312Z,17.36
2018-09-28T00:34:01.391Z,17.34
2018-09-28T00:36:29.465Z,17.29
2018-09-28T00:38:57.531Z,17.22
2018-09-28T00:41:25.609Z,17.20
2018-09-28T00:43:53.678Z,17.19
2018-09-28T00:46:21.753Z,17.13
2018-09-28T00:48:49.825Z,17.04
2018-09-28T00:51:17.933Z,16.98
2018-09-28T00:53:46.030Z,16.96
2018-09-28T00:56:14.090Z,16.97
2018-09-28T00:58:42.150Z,16.97
2018-09-28T01:01:10.235Z,16.96
2018-09-28T01:03:38.317Z,16.95
2018-09-28T01:06:06.402Z,16.88
2018-09-28T01:08:34.502Z,16.83
2018-09-28T01:11:02.574Z,16.73
2018-09-28T01:13:30.640Z,16.63
2018-09-28T01:15:58.710Z,16.56
2018-09-28T01:18:26.773Z,16.49
2018-09-28T01:20:54.840Z,16.48
2018-09-28T01:23:22.901Z,16.42
2018-09-28T01:25:50.971Z,16.36
2018-09-28T01:28:19.037Z,16.29
2018-09-28T01:30:47.109Z,16.22
2018-09-28T01:33:15.226Z,16.22
2018-09-28T01:35:43.317Z,16.24
2018-09-28T01:38:11.394Z,16.23
2018-09-28T01:40:39.477Z,16.21
2018-09-28T01:43:07.556Z,16.20
2018-09-28T01:45:35.742Z,16.20
2018-09-28T01:48:03.821Z,16.18
2018-09-28T01:50:31.999Z,16.21
2018-09-28T01:53:00.070Z,16.14
2018-09-28T01:55:28.138Z,16.09
2018-09-28T01:57:56.221Z,16.03
2018-09-28T02:00:24.322Z,16.01
2018-09-28T02:02:52.397Z,16.04
2018-09-28T02:05:20.486Z,16.06
2018-09-28T02:07:48.581Z,16.02
2018-09-28T02:10:16.645Z,16.00
2018-09-28T02:12:44.718Z,15.91
2018-09-28T02:15:12.803Z,15.87
2018-09-28T02:17:40.881Z,15.85
2018-09-28T02:20:08.955Z,15.83
2018-09-28T02:22:37.017Z,15.81
2018-09-28T02:25:05.089Z,15.83
2018-09-28T02:27:33.153Z,15.83
2018-09-28T02:30:01.214Z,15.84
2018-09-28T02:32:29.337Z,15.79
2018-09-28T02:34:57.401Z,15.73
2018-09-28T02:37:25.472Z,15.71
2018-09-28T02:39:53.533Z,15.73
2018-09-28T02:42:21.605Z,15.73
2018-09-28T02:44:49.661Z,15.65
2018-09-28T02:47:17.734Z,15.62
2018-09-28T02:49:45.792Z,15.57
2018-09-28T02:52:13.870Z,15.53
2018-09-28T02:54:41.935Z,15.50
2018-09-28T02:57:10.000Z,15.48
2018-09-28T02:59:38.082Z,15.46
2018-09-28T03:02:06.265Z,15.38
2018-09-28T03:04:34.325Z,15.35
2018-09-28T03:07:02.401Z,15.33
2018-09-28T03:09:30.464Z,15.28
2018-09-28T03:11:58.525Z,15.28
2018-09-28T03:14:26.598Z,15.27
2018-09-28T03:16:54.669Z,15.25
2018-09-28T03:19:22.722Z,15.29
2018-09-28T03:21:50.789Z,15.32
2018-09-28T03:24:18.853Z,15.27
2018-09-28T03:26:46.917Z,15.18
2018-09-28T03:29:14.978Z,15.12
2018-09-28T03:31:43.078Z,15.05
2018-09-28T03:34:11.341Z,15.04
2018-09-28T03:36:39.406Z,15.06
2018-09-28T03:39:07.794Z,15.06
2018-09-28T03:41:35.853Z,15.03
2018-09-28T03:44:03.933Z,15.02
2018-09-28T03:46:32.086Z,15.04
2018-09-28T03:49:00.155Z,15.03
2018-09-28T03:51:28.223Z,15.04
2018-09-28T03:53:56.289Z,15.06
2018-09-28T03:56:24.350Z,15.06
2018-09-28T03:58:52.434Z,15.04
2018-09-28T04:01:20.489Z,15.06
2018-09-28T04:03:48.577Z,15.07
2018-09-28T04:06:16.638Z,15.08
2018-09-28T04:08:44.718Z,15.03
2018-09-28T04:11:12.833Z,14.98
2018-09-28T04:13:40.939Z,14.99
2018-09-28T04:16:09.030Z,14.96
2018-09-28T04:18:37.114Z,14.95
2018-09-28T04:21:05.177Z,14.93
2018-09-28T04:23:33.248Z,14.87
2018-09-28T04:26:01.310Z,14.84
2018-09-28T04:28:29.385Z,14.77
2018-09-28T04:30:57.463Z,14.78
2018-09-28T04:33:25.617Z,14.79
2018-09-28T04:35:53.677Z,14.78
2018-09-28T04:38:21.752Z,14.80
2018-09-28T04:40:49.821Z,14.82
2018-09-28T04:43:17.881Z,14.85
2018-09-28T04:45:45.981Z,14.84
2018-09-28T04:48:14.044Z,14.81
2018-09-28T04:50:42.104Z,14.73
2018-09-28T04:53:10.181Z,14.71
2018-09-28T04:55:38.251Z,14.73
2018-09-28T04:58:06.329Z,14.72
2018-09-28T05:00:34.389Z,14.66
2018-09-28T05:03:02.461Z,14.62
2018-09-28T05:05:30.537Z,14.62
2018-09-28T05:07:58.609Z,14.63
2018-09-28T05:10:26.663Z,14.61
2018-09-28T05:12:54.747Z,14.60
2018-09-28T05:15:22.838Z,14.58
2018-09-28T05:17:50.960Z,14.56
2018-09-28T05:20:19.047Z,14.53
2018-09-28T05:22:47.133Z,14.49
2018-09-28T05:25:15.275Z,14.46
2018-09-28T05:27:43.319Z,14.39
2018-09-28T05:30:11.397Z,14.32
2018-09-28T05:32:39.640Z,14.27
2018-09-28T05:35:07.605Z,14.24
2018-09-28T05:37:35.669Z,14.21
2018-09-28T05:40:03.781Z,14.18
2018-09-28T05:42:31.846Z,14.16
2018-09-28T05:44:59.929Z,14.14
2018-09-28T05:47:28.003Z,14.12
2018-09-28T05:49:56.109Z,14.09
2018-09-28T05:52:24.180Z,14.07
2018-09-28T05:54:52.248Z,14.05
2018-09-28T05:57:20.321Z,14.02
2018-09-28T05:59:53.699Z,13.99
2018-09-28T06:02:27.197Z,13.97
2018-09-28T06:05:00.717Z,13.96
2018-09-28T06:07:28.800Z,13.96
2018-09-28T06:09:56.878Z,13.99
2018-09-28T06:12:24.966Z,14.04
2018-09-28T06:14:53.071Z,14.10
2018-09-28T06:17:21.154Z,14.16
2018-09-28T06:19:49.257Z,14.21
2018-09-28T06:22:17.346Z,14.22
2018-09-28T06:24:45.448Z,14.25
2018-09-28T06:27:13.517Z,14.31
2018-09-28T06:29:41.631Z,14.33
2018-09-28T06:32:09.706Z,14.37
2018-09-28T06:34:37.798Z,14.40
2018-09-28T06:37:05.870Z,14.43
2018-09-28T06:39:33.975Z,14.45
2018-09-28T06:42:02.130Z,14.53
2018-09-28T06:44:30.227Z,14.62
2018-09-28T06:46:58.273Z,14.77
2018-09-28T06:49:26.363Z,14.93
2018-09-28T06:51:54.433Z,15.14
2018-09-28T06:54:22.517Z,15.36
2018-09-28T06:56:50.585Z,15.63
2018-09-28T06:59:18.662Z,15.87
2018-09-28T07:01:46.714Z,16.17
2018-09-28T07:04:14.793Z,16.41
2018-09-28T07:06:42.881Z,16.68
2018-09-28T07:09:12.509Z,16.86
2018-09-28T07:11:40.866Z,17.07
2018-09-28T07:14:09.458Z,17.38
2018-09-28T07:16:37.565Z,17.57
2018-09-28T07:19:05.869Z,17.63
2018-09-28T07:21:33.956Z,17.79
2018-09-28T07:24:02.195Z,18.03
2018-09-28T07:26:30.201Z,18.17
2018-09-28T07:28:58.334Z,18.25
2018-09-28T07:31:26.445Z,18.25
2018-09-28T07:33:54.558Z,18.30
2018-09-28T07:36:22.735Z,18.33
2018-09-28T07:38:50.738Z,18.36
2018-09-28T07:41:18.816Z,18.54
2018-09-28T07:43:46.877Z,18.58
2018-09-28T07:46:14.959Z,18.50
2018-09-28T07:48:43.049Z,18.38
2018-09-28T07:51:11.642Z,18.26
2018-09-28T07:53:39.718Z,18.19
2018-09-28T07:56:07.875Z,18.17
2018-09-28T07:58:35.966Z,18.14
2018-09-28T08:01:04.060Z,18.20
2018-09-28T08:03:32.164Z,18.26
2018-09-28T08:06:00.874Z,18.44
2018-09-28T08:08:28.975Z,18.58
2018-09-28T08:10:57.058Z,18.72
2018-09-28T08:13:25.150Z,18.77
2018-09-28T08:15:53.248Z,18.83
2018-09-28T08:18:22.429Z,18.98
2018-09-28T08:20:50.819Z,18.99
2018-09-28T08:23:19.115Z,18.91
2018-09-28T08:25:47.194Z,18.71
2018-09-28T08:28:15.277Z,18.56
2018-09-28T08:30:44.418Z,18.49
2018-09-28T08:33:12.514Z,18.43
2018-09-28T08:35:40.619Z,18.36
2018-09-28T08:38:08.707Z,18.24
2018-09-28T08:40:36.852Z,18.16
2018-09-28T08:43:05.107Z,18.15
2018-09-28T08:45:33.458Z,18.06
2018-09-28T08:48:01.578Z,18.03
2018-09-28T08:50:29.805Z,18.12
2018-09-28T08:52:58.081Z,18.27
2018-09-28T08:55:26.157Z,18.40
2018-09-28T08:57:54.220Z,18.35
2018-09-28T09:00:22.818Z,18.41
2018-09-28T09:02:50.890Z,18.37
2018-09-28T09:05:19.069Z,18.39
2018-09-28T09:07:47.279Z,18.40
2018-09-28T09:10:15.454Z,18.36
2018-09-28T09:12:43.570Z,18.47
2018-09-28T09:15:11.641Z,18.54
2018-09-28T09:17:39.737Z,18.50
2018-09-28T09:20:07.870Z,18.32
2018-09-28T09:22:36.061Z,18.12
2018-09-28T09:25:04.151Z,18.07
2018-09-28T09:27:32.297Z,18.03
2018-09-28T09:30:00.406Z,17.96
2018-09-28T09:32:28.502Z,17.80
2018-09-28T09:34:56.590Z,17.83
2018-09-28T09:37:24.782Z,17.74
2018-09-28T09:39:52.921Z,17.75
2018-09-28T09:42:21.048Z,17.89
2018-09-28T09:44:49.159Z,18.10
2018-09-28T09:47:17.258Z,18.19
2018-09-28T09:49:45.365Z,18.25
2018-09-28T09:52:13.479Z,18.22
2018-09-28T09:54:41.569Z,18.29
2018-09-28T09:57:09.685Z,18.35
2018-09-28T09:59:37.760Z,18.52
2018-09-28T10:02:11.366Z,18.68
2018-09-28T10:04:39.463Z,18.92
2018-09-28T10:07:07.799Z,19.19
2018-09-28T10:09:36.027Z,19.34
2018-09-28T10:12:04.125Z,19.39
2018-09-28T10:14:32.229Z,19.43
2018-09-28T10:17:00.316Z,19.48
2018-09-28T10:19:28.396Z,19.42
2018-09-28T10:21:56.481Z,19.42
2018-09-28T10:24:24.553Z,19.53
2018-09-28T10:26:52.638Z,19.64
2018-09-28T10:29:20.727Z,19.87
2018-09-28T10:31:48.838Z,20.16
2018-09-28T10:34:16.998Z,20.26
2018-09-28T10:36:45.070Z,20.36
2018-09-28T10:39:13.192Z,20.64
2018-09-28T10:41:41.323Z,21.05
2018-09-28T10:44:09.429Z,21.42
2018-09-28T10:46:37.685Z,21.81
2018-09-28T10:49:05.778Z,21.94
2018-09-28T10:51:33.882Z,22.17
2018-09-28T10:54:01.946Z,22.43
2018-09-28T10:56:30.066Z,22.43
2018-09-28T10:58:58.198Z,22.39
2018-09-28T11:01:26.233Z,22.20
2018-09-28T11:03:54.315Z,21.92
2018-09-28T11:06:22.398Z,21.79
2018-09-28T11:08:50.497Z,21.89
2018-09-28T11:11:18.566Z,22.24
2018-09-28T11:13:46.654Z,22.37
2018-09-28T11:16:14.747Z,22.26
2018-09-28T11:18:42.845Z,22.07
2018-09-28T11:21:11.037Z,22.23
2018-09-28T11:23:39.069Z,22.16
2018-09-28T11:26:07.381Z,22.02
2018-09-28T11:28:35.521Z,22.14
2018-09-28T11:31:03.594Z,22.41
2018-09-28T11:33:31.748Z,22.81
2018-09-28T11:36:00.116Z,22.66
2018-09-28T11:38:28.190Z,22.45
2018-09-28T11:40:56.266Z,22.53
2018-09-28T11:43:24.382Z,22.40
2018-09-28T11:45:52.492Z,22.32
2018-09-28T11:48:20.536Z,22.13
2018-09-28T11:50:48.605Z,21.72
2018-09-28T11:53:16.724Z,21.38
2018-09-28T11:55:44.877Z,21.08
2018-09-28T11:58:12.961Z,20.94
2018-09-28T12:00:41.033Z,21.05
2018-09-28T12:03:09.120Z,20.93
2018-09-28T12:05:37.197Z,20.53
2018-09-28T12:08:05.350Z,20.50
2018-09-28T12:10:33.429Z,20.87
2018-09-28T12:13:01.514Z,21.33
2018-09-28T12:15:29.611Z,21.55
2018-09-28T12:17:57.925Z,21.71
2018-09-28T12:20:25.993Z,21.62
2018-09-28T12:22:54.089Z,21.33
2018-09-28T12:25:22.272Z,21.02
2018-09-28T12:27:50.425Z,20.66
2018-09-28T12:30:18.501Z,20.39
2018-09-28T12:32:46.672Z,20.25
2018-09-28T12:35:14.757Z,20.10
2018-09-28T12:37:42.924Z,20.34
2018-09-28T12:40:11.017Z,20.67
2018-09-28T12:42:39.148Z,20.93
2018-09-28T12:45:07.363Z,21.34
2018-09-28T12:47:35.376Z,21.61
2018-09-28T12:50:03.488Z,21.35
2018-09-28T12:52:31.625Z,21.11
2018-09-28T12:54:59.704Z,20.83
2018-09-28T12:57:27.789Z,20.61
2018-09-28T12:59:55.937Z,20.60
2018-09-28T13:02:24.014Z,20.85
2018-09-28T13:04:52.131Z,20.85
2018-09-28T13:07:20.224Z,20.67
2018-09-28T13:09:48.332Z,20.45
2018-09-28T13:12:16.488Z,20.34
2018-09-28T13:14:44.696Z,20.19
2018-09-28T13:17:12.762Z,20.34
2018-09-28T13:19:40.870Z,20.53
2018-09-28T13:22:08.968Z,20.52
2018-09-28T13:24:37.110Z,20.67
2018-09-28T13:27:05.238Z,20.91
2018-09-28T13:29:33.397Z,20.98
2018-09-28T13:32:01.482Z,21.05
2018-09-28T13:34:29.562Z,21.27
2018-09-28T13:36:57.629Z,21.46
2018-09-28T13:39:25.782Z,21.46
2018-09-28T13:41:53.860Z,21.34
2018-09-28T13:44:22.013Z,21.49
2018-09-28T13:46:50.159Z,21.61
2018-09-28T13:49:18.225Z,21.75
2018-09-28T13:51:46.385Z,21.86
2018-09-28T13:54:14.508Z,22.01
2018-09-28T13:56:42.617Z,22.06
2018-09-28T13:59:10.661Z,22.10
2018-09-28T14:01:38.752Z,22.19
2018-09-28T14:04:07.080Z,22.14
2018-09-28T14:06:35.224Z,21.90
2018-09-28T14:09:03.270Z,21.54
2018-09-28T14:11:31.345Z,21.18
2018-09-28T14:13:59.952Z,21.06
2018-09-28T14:16:28.108Z,20.99
2018-09-28T14:18:56.203Z,20.98
2018-09-28T14:21:24.282Z,21.06
2018-09-28T14:23:52.465Z,21.15
2018-09-28T14:26:20.660Z,21.15
2018-09-28T14:28:48.798Z,21.01
2018-09-28T14:31:16.856Z,20.96
2018-09-28T14:33:44.982Z,20.79
2018-09-28T14:36:13.107Z,20.73
2018-09-28T14:38:41.284Z,20.75
2018-09-28T14:41:09.325Z,20.62
2018-09-28T14:43:37.439Z,20.50
2018-09-28T14:46:05.597Z,20.50
2018-09-28T14:48:33.721Z,20.54
2018-09-28T14:51:01.781Z,20.55
2018-09-28T14:53:29.850Z,20.44
2018-09-28T14:55:58.026Z,20.34
2018-09-28T14:58:26.143Z,20.26
2018-09-28T15:00:54.399Z,20.17
2018-09-28T15:03:22.318Z,20.05
2018-09-28T15:05:50.416Z,19.94
2018-09-28T15:08:18.605Z,19.86
2018-09-28T15:10:46.704Z,19.65
2018-09-28T15:13:14.750Z,19.56
2018-09-28T15:15:42.837Z,19.43
2018-09-28T15:18:10.924Z,19.32
2018-09-28T15:20:39.001Z,19.11
2018-09-28T15:23:07.066Z,19.04
2018-09-28T15:25:35.148Z,18.86
2018-09-28T15:28:03.226Z,18.68
2018-09-28T15:30:31.291Z,18.50
2018-09-28T15:32:59.366Z,18.35
2018-09-28T15:35:27.446Z,18.22
2018-09-28T15:37:55.597Z,18.13
2018-09-28T15:40:23.666Z,18.02
2018-09-28T15:42:51.762Z,17.87
2018-09-28T15:45:19.853Z,17.77
2018-09-28T15:47:47.993Z,17.63
2018-09-28T15:50:22.840Z,17.46
2018-09-28T15:52:50.926Z,17.35
2018-09-28T15:55:19.012Z,17.26
2018-09-28T15:57:47.080Z,17.16
2018-09-28T16:00:15.152Z,17.01
2018-09-28T16:02:43.269Z,16.93
2018-09-28T16:05:11.351Z,16.83
2018-09-28T16:07:39.414Z,16.78
2018-09-28T16:10:07.505Z,16.71
2018-09-28T16:12:35.637Z,16.62
2018-09-28T16:15:04.140Z,16.50
2018-09-28T16:17:32.645Z,16.45
2018-09-28T16:20:00.854Z,16.35
2018-09-28T16:22:29.233Z,16.31
2018-09-28T16:24:57.645Z,16.31
2018-09-28T16:27:32.580Z,16.25
2018-09-28T16:30:00.848Z,16.13
2018-09-28T16:32:29.373Z,16.08
2018-09-28T16:34:58.009Z,16.05
2018-09-28T16:37:26.613Z,16.00
2018-09-28T16:39:55.033Z,15.95
2018-09-28T16:42:23.654Z,15.91
2018-09-28T16:44:52.040Z,15.91
2018-09-28T16:47:20.569Z,15.97
2018-09-28T16:49:48.952Z,15.95
2018-09-28T16:52:17.322Z,15.95
2018-09-28T16:54:45.724Z,15.95
2018-09-28T16:57:14.058Z,15.88
2018-09-28T16:59:42.426Z,15.86
2018-09-28T17:02:10.688Z,15.80
2018-09-28T17:04:38.926Z,15.72
2018-09-28T17:07:07.175Z,15.70
2018-09-28T17:09:36.327Z,15.68
2018-09-28T17:12:04.594Z,15.66
2018-09-28T17:14:33.890Z,15.64
2018-09-28T17:17:02.271Z,15.61
2018-09-28T17:19:30.337Z,15.57
2018-09-28T17:21:58.658Z,15.54
2018-09-28T17:24:27.114Z,15.49
2018-09-28T17:26:56.107Z,15.42
2018-09-28T17:29:24.409Z,15.34
2018-09-28T17:31:52.745Z,15.24
2018-09-28T17:34:21.039Z,15.19
2018-09-28T17:36:49.305Z,15.13
2018-09-28T17:39:17.615Z,15.10
2018-09-28T17:41:45.761Z,15.06
2018-09-28T17:44:14.096Z,14.99
2018-09-28T17:46:42.402Z,14.92
2018-09-28T17:49:10.760Z,14.89
2018-09-28T17:51:39.470Z,14.88
2018-09-28T17:54:07.822Z,14.87
2018-09-28T17:56:35.986Z,14.86
2018-09-28T17:59:04.354Z,14.83
2018-09-28T18:01:32.679Z,14.80
2018-09-28T18:04:00.814Z,14.77
2018-09-28T18:06:28.912Z,14.69
2018-09-28T18:08:57.046Z,14.61
2018-09-28T18:11:25.321Z,14.56
2018-09-28T18:13:53.445Z,14.51
2018-09-28T18:16:21.542Z,14.48
2018-09-28T18:18:49.662Z,14.45
2018-09-28T18:21:17.739Z,14.43
2018-09-28T18:23:45.848Z,14.38
2018-09-28T18:26:13.921Z,14.36
2018-09-28T18:28:42.033Z,14.34
2018-09-28T18:31:10.093Z,14.33
2018-09-28T18:33:38.254Z,14.35
2018-09-28T18:36:06.339Z,14.30
2018-09-28T18:38:34.405Z,14.30
2018-09-28T18:41:02.520Z,14.37
2018-09-28T18:43:30.673Z,14.49
2018-09-28T18:45:58.742Z,14.44
2018-09-28T18:48:26.877Z,14.34
2018-09-28T18:50:54.937Z,14.25
2018-09-28T18:53:23.030Z,14.18
2018-09-28T18:55:51.101Z,14.12
2018-09-28T18:58:19.175Z,14.08
2018-09-28T19:00:47.242Z,14.04
2018-09-28T19:03:15.339Z,14.00
2018-09-28T19:05:43.434Z,13.97
2018-09-28T19:08:11.521Z,13.91
2018-09-28T19:10:39.621Z,13.83
2018-09-28T19:13:07.740Z,13.79
2018-09-28T19:15:35.789Z,13.75
2018-09-28T19:18:03.904Z,13.73
2018-09-28T19:20:31.981Z,13.67
2018-09-28T19:23:00.078Z,13.65
2018-09-28T19:25:28.164Z,13.63
2018-09-28T19:27:56.237Z,13.58
2018-09-28T19:30:24.300Z,13.53
2018-09-28T19:32:52.386Z,13.48
2018-09-28T19:35:20.505Z,13.42
2018-09-28T19:37:48.574Z,13.36
2018-09-28T19:40:16.681Z,13.31
2018-09-28T19:42:44.777Z,13.27
2018-09-28T19:45:12.913Z,13.22
2018-09-28T19:47:41.021Z,13.17
2018-09-28T19:50:09.164Z,13.12
2018-09-28T19:52:37.250Z,13.08
2018-09-28T19:55:05.385Z,13.05
2018-09-28T19:57:33.457Z,13.01
2018-09-28T20:00:01.566Z,12.97
2018-09-28T20:02:29.697Z,12.89
2018-09-28T20:04:57.785Z,12.86
2018-09-28T20:07:25.873Z,12.84
2018-09-28T20:09:53.958Z,12.81
2018-09-28T20:12:22.029Z,12.79
2018-09-28T20:14:50.157Z,12.76
2018-09-28T20:17:18.230Z,12.74
2018-09-28T20:19:46.297Z,12.73
2018-09-28T20:22:14.662Z,12.70
2018-09-28T20:24:42.729Z,12.69
2018-09-28T20:27:10.805Z,12.68
2018-09-28T20:29:39.082Z,12.65
2018-09-28T20:32:07.196Z,12.64
2018-09-28T20:34:35.279Z,12.61
2018-09-28T20:37:03.481Z,12.57
2018-09-28T20:39:31.573Z,12.52
2018-09-28T20:41:59.625Z,12.46
2018-09-28T20:44:27.698Z,12.40
2018-09-28T20:46:55.760Z,12.34
2018-09-28T20:49:23.874Z,12.29
2018-09-28T20:51:51.949Z,12.26
2018-09-28T20:54:20.066Z,12.22
2018-09-28T20:56:48.173Z,12.20
2018-09-28T20:59:16.245Z,12.16
2018-09-28T21:01:44.321Z,12.14
2018-09-28T21:04:12.403Z,12.11
2018-09-28T21:06:40.481Z,12.08
2018-09-28T21:09:09.535Z,12.07
2018-09-28T21:11:37.593Z,12.05
2018-09-28T21:14:05.666Z,12.02
2018-09-28T21:16:33.746Z,12.00
2018-09-28T21:19:01.826Z,11.97
2018-09-28T21:21:29.917Z,11.94
2018-09-28T21:23:57.994Z,11.90
2018-09-28T21:26:26.075Z,11.86
2018-09-28T21:28:54.248Z,11.78
2018-09-28T21:31:22.301Z,11.70
2018-09-28T21:33:50.395Z,11.63
2018-09-28T21:36:18.510Z,11.56
2018-09-28T21:38:46.584Z,11.48
2018-09-28T21:41:14.656Z,11.40
2018-09-28T21:43:42.717Z,11.34
2018-09-28T21:46:10.785Z,11.26
2018-09-28T21:48:38.858Z,11.21
2018-09-28T21:51:06.933Z,11.14
2018-09-28T21:53:35.018Z,11.08
2018-09-28T21:56:03.108Z,11.03
2018-09-28T21:58:31.177Z,10.97
2018-09-28T22:00:59.299Z,10.91
2018-09-28T22:03:27.497Z,10.86
2018-09-28T22:05:55.573Z,10.81
2018-09-28T22:08:23.653Z,10.75
2018-09-28T22:10:51.765Z,10.70
2018-09-28T22:13:19.872Z,10.62
2018-09-28T22:15:47.950Z,10.57
2018-09-28T22:18:16.105Z,10.53
2018-09-28T22:20:44.209Z,10.48
2018-09-28T22:23:12.277Z,10.43
2018-09-28T22:25:40.344Z,10.37
2018-09-28T22:28:08.405Z,10.34
2018-09-28T22:30:36.497Z,10.29
2018-09-28T22:33:04.576Z,10.23
2018-09-28T22:35:32.667Z,10.16
2018-09-28T22:38:00.779Z,10.14
2018-09-28T22:40:28.861Z,10.09
2018-09-28T22:42:56.929Z,10.05
2018-09-28T22:45:24.990Z,9.99
2018-09-28T22:47:53.042Z,9.94
2018-09-28T22:50:21.122Z,9.90
2018-09-28T22:52:49.184Z,9.85
2018-09-28T22:55:17.256Z,9.79
2018-09-28T22:57:45.323Z,9.75
2018-09-28T23:00:13.425Z,9.72
2018-09-28T23:02:41.485Z,9.70
2018-09-28T23:05:09.549Z,9.66
2018-09-28T23:07:37.593Z,9.63
2018-09-28T23:10:05.754Z,9.62
2018-09-28T23:12:33.849Z,9.56
2018-09-28T23:15:01.931Z,9.51
2018-09-28T23:17:29.997Z,9.46
2018-09-28T23:19:58.169Z,9.43
2018-09-28T23:22:26.229Z,9.39
2018-09-28T23:24:54.313Z,9.37
2018-09-28T23:27:22.377Z,9.35
2018-09-28T23:29:50.437Z,9.32
2018-09-28T23:32:18.514Z,9.29
2018-09-28T23:34:46.581Z,9.26
2018-09-28T23:37:14.666Z,9.21
2018-09-28T23:39:42.733Z,9.19
2018-09-28T23:42:10.805Z,9.15
2018-09-28T23:44:38.897Z,9.11
2018-09-28T23:47:06.968Z,9.08
2018-09-28T23:49:35.044Z,9.04
2018-09-28T23:52:03.176Z,8.99
2018-09-28T23:54:31.242Z,8.94
2018-09-28T23:56:59.401Z,8.89
2018-09-28T23:59:27.454Z,8.84
